Stations météo

réclame
Mon MeteoGroup
Sule Skerry, Grande-Bretagne (3010): Température de l'air & dewpoint: 15.06.2018 18:00:00 - 21.06.2018 18:00:00 (BST)Sule Skerry, Grande-Bretagne (3010): Vitesse du vent & gusts: 15.06.2018 18:00:00 - 21.06.2018 18:00:00 (BST)Sule Skerry, Grande-Bretagne (3010): Direction du vent: 15.06.2018 18:00:00 - 21.06.2018 18:00:00 (BST)Sule Skerry, Grande-Bretagne (3010): reduced air pressure: 15.06.2018 18:00:00 - 21.06.2018 18:00:00 (BST)
Date & Time tt [°C] td [°C] ff [km/h] ff [knt] fx [km/h] fx [knt] dd ppp [hPa]
21.06.2018 18:00:00 10,8 6,7 42 23 59 32 NW 1026,7
21.06.2018 17:00:00 10,9 7,1 46 25 57 31 NW 1026,3
21.06.2018 16:00:00 11,0 7,0 46 25 59 32 NW 1025,7
21.06.2018 15:00:00 10,6 6,3 44 24 61 33 NW 1025,3
21.06.2018 14:00:00 10,7 6,7 46 25 65 35 NW 1024,7
21.06.2018 13:00:00 10,6 6,4 50 27 67 36 WNW 1023,9
21.06.2018 12:00:00 10,8 6,0 48 26 70 38 WNW 1023,3
21.06.2018 11:00:00 10,3 4,9 46 25 65 35 WNW 1022,7
21.06.2018 10:00:00 10,1 4,6 50 27 67 36 NW 1022,1
21.06.2018 09:00:00 10,0 4,9 50 27 67 36 NW 1021,5
21.06.2018 08:00:00 9,5 4,7 54 29 67 36 NW 1020,5
21.06.2018 07:00:00 9,4 5,3 50 27 63 34 NW 1020,1
21.06.2018 06:00:00 9,5 6,8 44 24 57 31 NW 1019,1
21.06.2018 05:00:00 9,8 5,0 42 23 54 29 NW 1018,9
21.06.2018 04:00:00 9,7 4,9 39 21 48 26 NW 1018,5
21.06.2018 03:00:00 9,6 4,8 41 22 48 26 NW 1018,1
21.06.2018 02:00:00 9,6 5,1 37 20 46 25 NW 1017,5
21.06.2018 01:00:00 9,7 5,8 34 18 - - NW 1016,5
21.06.2018 00:00:00 9,4 5,8 29 16 - - NW 1015,9
20.06.2018 23:00:00 9,5 5,8 29 16 - - NW 1015,5
20.06.2018 22:00:00 8,8 5,0 28 15 46 25 NW 1014,5
20.06.2018 21:00:00 9,9 5,4 22 12 - - WNW 1014,3
20.06.2018 20:00:00 10,1 5,5 18 10 - - WNW 1013,9
20.06.2018 19:00:00 9,1 5,1 22 12 - - W 1014,1
20.06.2018 18:00:00 10,9 6,3 22 12 - - W 1014,1
20.06.2018 17:00:00 11,2 5,3 22 12 - - W 1014,1
20.06.2018 16:00:00 11,7 6,5 24 13 - - W 1014,3
20.06.2018 15:00:00 11,2 5,7 26 14 - - W 1014,1
20.06.2018 14:00:00 11,3 6,0 24 13 - - W 1013,9
20.06.2018 13:00:00 11,3 5,8 24 13 - - W 1013,9
20.06.2018 12:00:00 11,0 6,7 16 9 - - WSW 1013,9
20.06.2018 11:00:00 10,8 6,4 16 9 - - W 1013,5
20.06.2018 10:00:00 10,9 6,5 18 10 - - W 1013,3
20.06.2018 09:00:00 10,7 5,9 15 8 - - W 1012,9
20.06.2018 08:00:00 10,2 6,0 9 5 - - W 1012,5
20.06.2018 07:00:00 10,0 6,1 13 7 - - WNW 1012,3
20.06.2018 06:00:00 9,6 6,2 9 5 - - WNW 1012,3
20.06.2018 05:00:00 9,9 6,6 11 6 - - NW 1012,1
20.06.2018 04:00:00 9,8 7,1 13 7 - - WNW 1012,3
20.06.2018 03:00:00 9,7 7,3 9 5 - - W 1012,3
20.06.2018 02:00:00 9,9 7,4 9 5 - - WSW 1012,9
20.06.2018 01:00:00 10,0 7,3 11 6 - - WSW 1013,3
20.06.2018 00:00:00 10,1 6,8 16 9 - - W 1013,5
19.06.2018 23:00:00 10,3 7,2 18 10 - - W 1013,9
19.06.2018 22:00:00 10,3 6,8 18 10 - - W 1013,7
19.06.2018 21:00:00 10,5 6,7 26 14 - - WSW 1013,9
19.06.2018 20:00:00 10,5 6,6 26 14 - - WSW 1013,9
19.06.2018 19:00:00 11,0 6,5 29 16 - - WSW 1013,9
19.06.2018 18:00:00 11,2 7,3 28 15 - - WSW 1013,7
19.06.2018 17:00:00 11,0 6,6 29 16 - - WSW 1013,7
19.06.2018 16:00:00 9,6 5,8 39 21 55 30 WSW 1013,7
19.06.2018 15:00:00 11,3 6,7 39 21 50 27 WSW 1013,3
19.06.2018 14:00:00 11,4 7,1 37 20 57 31 W 1012,9
19.06.2018 13:00:00 11,3 7,3 41 22 63 34 W 1012,3
19.06.2018 12:00:00 11,0 6,8 46 25 61 33 W 1011,3
19.06.2018 11:00:00 11,0 7,6 41 22 67 36 W 1010,7
19.06.2018 10:00:00 11,0 5,9 52 28 67 36 W 1009,9
19.06.2018 09:00:00 10,8 7,0 48 26 67 36 W 1008,9
19.06.2018 08:00:00 10,6 7,4 46 25 63 34 W 1008,5
19.06.2018 07:00:00 10,1 7,7 46 25 65 35 W 1007,7
19.06.2018 06:00:00 10,1 7,0 50 27 67 36 WSW 1007,1
19.06.2018 05:00:00 10,4 7,4 46 25 76 41 WSW 1006,5
19.06.2018 04:00:00 10,3 7,3 55 30 80 43 WSW 1005,5
19.06.2018 03:00:00 10,5 7,4 55 30 80 43 WSW 1004,7
19.06.2018 02:00:00 10,4 7,3 59 32 80 43 WSW 1004,5
19.06.2018 01:00:00 10,4 6,7 61 33 85 46 WSW 1003,7
19.06.2018 00:00:00 10,5 6,9 57 31 78 42 WSW 1003,0
18.06.2018 23:00:00 10,3 6,9 57 31 74 40 WSW 1002,6
18.06.2018 22:00:00 10,5 6,9 48 26 74 40 WSW 1002,6
18.06.2018 21:00:00 10,3 6,9 52 28 74 40 WSW 1002,2
18.06.2018 20:00:00 10,5 6,2 54 29 85 46 WSW 1002,0
18.06.2018 19:00:00 10,8 5,9 48 26 76 41 WSW 1001,6
18.06.2018 18:00:00 11,2 6,9 41 22 68 37 SW 1002,0
18.06.2018 17:00:00 10,3 7,2 48 26 74 40 SW 1002,0
18.06.2018 16:00:00 11,0 7,5 34 18 72 39 SW 1002,4
18.06.2018 15:00:00 10,5 7,6 34 18 68 37 SSW 1002,6
18.06.2018 14:00:00 10,6 7,2 37 20 57 31 SW 1002,8
18.06.2018 13:00:00 10,8 7,7 42 23 55 30 SSW 1002,8
18.06.2018 12:00:00 10,6 6,3 41 22 57 31 SW 1002,6
18.06.2018 11:00:00 10,9 7,5 35 19 52 28 SW 1002,4
18.06.2018 10:00:00 10,8 7,8 37 20 59 32 SW 1002,4
18.06.2018 09:00:00 10,9 7,3 41 22 61 33 SW 1002,2
18.06.2018 08:00:00 10,7 7,0 35 19 57 31 SW 1002,0
18.06.2018 07:00:00 10,9 7,6 41 22 61 33 SW 1001,6
18.06.2018 06:00:00 10,7 7,3 37 20 59 32 SW 1001,6
18.06.2018 05:00:00 10,6 7,9 39 21 55 30 SW 1001,4
18.06.2018 04:00:00 10,7 8,4 34 18 - - SW 1001,4
18.06.2018 03:00:00 10,8 8,6 28 15 46 25 SW 1001,4
18.06.2018 02:00:00 10,6 9,2 34 18 59 32 SW 1001,6
18.06.2018 01:00:00 11,0 9,9 35 19 48 26 SW 1001,4
18.06.2018 00:00:00 11,1 10,0 31 17 - - SW 1001,0
17.06.2018 23:00:00 11,3 9,7 26 14 - - S 1001,0
17.06.2018 22:00:00 12,0 9,7 28 15 - - S 1001,2
17.06.2018 21:00:00 11,0 9,2 13 7 - - ESE 1001,8
17.06.2018 20:00:00 11,2 9,3 15 8 - - SE 1002,8
17.06.2018 19:00:00 11,3 8,9 16 9 - - ESE 1003,6
17.06.2018 18:00:00 11,4 8,8 16 9 - - ESE 1004,0
17.06.2018 17:00:00 11,2 7,9 13 7 - - SE 1004,6
17.06.2018 16:00:00 11,2 8,7 15 8 - - SE 1005,2
17.06.2018 15:00:00 11,4 8,8 13 7 - - SE 1005,6
17.06.2018 14:00:00 11,5 8,6 11 6 - - SSE 1006,0
17.06.2018 13:00:00 11,8 8,5 8 4 - - SSE 1006,0
17.06.2018 12:00:00 11,6 9,5 8 4 - - S 1006,2
17.06.2018 11:00:00 11,3 9,5 8 4 - - SSW 1006,2
17.06.2018 10:00:00 11,0 9,6 8 4 - - SW 1006,3
17.06.2018 09:00:00 10,6 9,4 8 4 - - SSW 1006,5
17.06.2018 08:00:00 10,3 9,2 11 6 - - SW 1006,1
17.06.2018 07:00:00 10,5 9,5 13 7 - - SW 1005,9
17.06.2018 06:00:00 10,4 9,3 9 5 - - SSW 1006,1
17.06.2018 05:00:00 10,2 9,1 13 7 - - SSE 1005,9
17.06.2018 04:00:00 9,9 8,7 13 7 - - SE 1006,1
17.06.2018 03:00:00 10,1 8,8 18 10 - - SE 1006,3
17.06.2018 02:00:00 10,2 8,7 21 11 - - SE 1006,1
17.06.2018 01:00:00 10,5 8,9 18 10 - - SE 1006,5
17.06.2018 00:00:00 10,6 8,8 15 8 - - ESE 1006,1
16.06.2018 23:00:00 11,0 8,8 15 8 - - ESE 1006,1
16.06.2018 22:00:00 11,1 8,3 16 9 - - ESE 1006,1
16.06.2018 21:00:00 11,3 8,3 18 10 - - SE 1006,0
16.06.2018 20:00:00 11,4 9,0 22 12 - - SE 1005,6
16.06.2018 19:00:00 11,2 9,2 24 13 - - ESE 1005,6
16.06.2018 18:00:00 11,3 9,0 22 12 - - ESE 1005,6
16.06.2018 17:00:00 11,7 9,4 22 12 - - SE 1005,6
16.06.2018 16:00:00 11,3 8,7 21 11 - - ESE 1006,0
16.06.2018 15:00:00 11,4 8,8 22 12 - - SE 1006,0
16.06.2018 14:00:00 11,2 8,5 28 15 - - SE 1006,0
16.06.2018 13:00:00 11,3 8,3 28 15 - - ESE 1006,2
16.06.2018 12:00:00 11,4 8,5 24 13 - - E 1006,6
16.06.2018 11:00:00 11,3 9,0 18 10 - - ESE 1006,7
16.06.2018 10:00:00 10,6 8,5 21 11 - - ESE 1007,3
16.06.2018 09:00:00 10,4 8,3 21 11 - - ESE 1007,5
16.06.2018 08:00:00 10,4 8,5 18 10 - - ESE 1007,7
16.06.2018 07:00:00 10,4 8,6 21 11 - - ESE 1007,7
16.06.2018 06:00:00 10,3 8,6 16 9 - - ESE 1007,5
16.06.2018 05:00:00 10,4 8,6 15 8 - - SE 1008,1
16.06.2018 04:00:00 10,2 8,5 11 6 - - SSE 1008,5
16.06.2018 03:00:00 10,1 8,3 13 7 - - SE 1008,7
16.06.2018 02:00:00 10,1 8,4 11 6 - - S 1008,9
16.06.2018 01:00:00 10,1 8,3 13 7 - - S 1009,1
16.06.2018 00:00:00 10,3 8,4 15 8 - - SW 1008,9
15.06.2018 23:00:00 10,1 8,2 8 4 - - SW 1008,7
15.06.2018 22:00:00 10,3 8,2 15 8 - - SSW 1008,7
15.06.2018 21:00:00 10,1 7,6 15 8 - - SSW 1008,3
15.06.2018 20:00:00 10,3 7,7 15 8 - - SW 1008,1
15.06.2018 19:00:00 11,1 7,8 18 10 - - SW 1007,9
15.06.2018 18:00:00 11,4 8,5 18 10 - - SW 1007,7

tt = Température de l'air
td = dewpoint
ff = Vitesse du vent
fx = gusts
dd = Direction du vent
ppp = reduced air pressure

stations d'obs. à proximité